createdAt,value
2022-09-15T00:02:06.417Z,88.00
2022-09-15T00:04:33.186Z,87.80
2022-09-15T00:06:59.850Z,87.40
2022-09-15T00:09:26.644Z,87.10
2022-09-15T00:11:53.322Z,86.80
2022-09-15T00:14:19.961Z,86.60
2022-09-15T00:16:46.717Z,86.50
2022-09-15T00:19:13.399Z,86.50
2022-09-15T00:21:40.902Z,86.40
2022-09-15T00:24:08.074Z,86.30
2022-09-15T00:26:35.121Z,86.40
2022-09-15T00:29:02.026Z,86.40
2022-09-15T00:31:29.740Z,86.60
2022-09-15T00:33:57.616Z,86.60
2022-09-15T00:36:24.770Z,86.60
2022-09-15T00:38:51.481Z,86.60
2022-09-15T00:41:20.304Z,86.70
2022-09-15T00:44:01.174Z,86.90
2022-09-15T00:46:35.495Z,87.60
2022-09-15T00:49:08.484Z,88.10
2022-09-15T00:51:50.459Z,88.50
2022-09-15T00:54:20.032Z,88.60
2022-09-15T00:56:48.292Z,88.60
2022-09-15T00:59:19.217Z,88.40
2022-09-15T01:01:46.253Z,88.20
2022-09-15T01:04:13.448Z,88.30
2022-09-15T01:06:43.964Z,88.40
2022-09-15T01:09:27.563Z,88.50
2022-09-15T01:11:58.299Z,88.50
2022-09-15T01:14:45.231Z,88.60
2022-09-15T01:17:33.125Z,88.70
2022-09-15T01:20:43.844Z,88.70
2022-09-15T01:23:29.306Z,88.80
2022-09-15T01:26:04.795Z,88.80
2022-09-15T01:28:59.529Z,88.70
2022-09-15T01:31:39.853Z,88.70
2022-09-15T01:34:10.479Z,88.70
2022-09-15T01:36:37.181Z,88.50
2022-09-15T01:39:18.523Z,88.40
2022-09-15T01:41:50.303Z,88.30
2022-09-15T01:44:21.415Z,88.30
2022-09-15T01:46:49.914Z,88.40
2022-09-15T01:49:34.800Z,88.30
2022-09-15T01:52:04.618Z,88.20
2022-09-15T01:54:35.420Z,88.00
2022-09-15T01:57:02.505Z,87.70
2022-09-15T01:59:29.146Z,87.60
2022-09-15T02:02:07.492Z,87.60
2022-09-15T02:07:11.151Z,87.40
2022-09-15T02:09:44.632Z,87.40
2022-09-15T02:12:41.661Z,87.60
2022-09-15T02:15:12.048Z,87.70
2022-09-15T02:17:42.153Z,87.70
2022-09-15T02:20:13.679Z,87.60
2022-09-15T02:22:42.083Z,87.50
2022-09-15T02:25:13.791Z,87.60
2022-09-15T02:27:44.745Z,87.60
2022-09-15T02:30:13.528Z,87.60
2022-09-15T02:32:49.372Z,87.70
2022-09-15T02:35:16.223Z,87.90
2022-09-15T02:37:43.030Z,88.10
2022-09-15T02:40:10.249Z,88.00
2022-09-15T02:42:37.033Z,88.00
2022-09-15T02:45:04.039Z,87.90
2022-09-15T02:47:30.793Z,87.90
2022-09-15T02:49:57.543Z,87.60
2022-09-15T02:52:24.249Z,87.50
2022-09-15T02:54:50.928Z,87.30
2022-09-15T02:57:17.645Z,87.30
2022-09-15T02:59:44.529Z,87.30
2022-09-15T03:02:11.290Z,87.20
2022-09-15T03:04:39.786Z,87.20
2022-09-15T03:07:07.187Z,87.20
2022-09-15T03:09:50.896Z,87.30
2022-09-15T03:12:17.557Z,87.30
2022-09-15T03:14:44.406Z,87.30
2022-09-15T03:17:11.114Z,87.30
2022-09-15T03:19:37.863Z,87.50
2022-09-15T03:22:04.679Z,87.50
2022-09-15T03:24:31.412Z,87.40
2022-09-15T03:26:58.059Z,87.50
2022-09-15T03:29:24.920Z,87.60
2022-09-15T03:31:51.717Z,88.00
2022-09-15T03:34:18.504Z,88.30
2022-09-15T03:42:00.561Z,89.20
2022-09-15T03:44:27.181Z,89.50
2022-09-15T03:46:53.988Z,89.60
2022-09-15T03:49:20.806Z,89.70
2022-09-15T03:51:47.421Z,89.80
2022-09-15T03:54:14.161Z,89.80
2022-09-15T03:56:55.597Z,89.90
2022-09-15T03:59:22.280Z,89.90
2022-09-15T04:01:51.998Z,89.90
2022-09-15T04:04:18.709Z,89.90
2022-09-15T04:06:45.372Z,89.90
2022-09-15T04:09:12.119Z,89.70
2022-09-15T04:11:38.868Z,89.50
2022-09-15T04:14:05.580Z,89.10
2022-09-15T04:16:32.312Z,89.00
2022-09-15T04:18:59.060Z,89.10
2022-09-15T04:21:26.081Z,89.00
2022-09-15T04:23:53.137Z,88.90
2022-09-15T04:26:30.984Z,88.80
2022-09-15T04:29:01.583Z,88.40
2022-09-15T04:31:34.111Z,88.30
2022-09-15T04:34:01.033Z,88.20
2022-09-15T04:36:28.336Z,88.40
2022-09-15T04:38:55.789Z,88.60
2022-09-15T04:41:23.170Z,88.80
2022-09-15T04:43:49.950Z,89.10
2022-09-15T04:46:16.848Z,89.10
2022-09-15T04:48:46.679Z,89.10
2022-09-15T04:51:17.153Z,89.10
2022-09-15T04:53:44.272Z,89.30
2022-09-15T04:58:51.170Z,89.50
2022-09-15T05:01:22.269Z,89.50
2022-09-15T05:03:50.618Z,89.60
2022-09-15T05:06:39.620Z,89.70
2022-09-15T05:09:10.210Z,89.80
2022-09-15T05:11:37.814Z,89.80
2022-09-15T05:14:04.623Z,89.90
2022-09-15T05:16:31.526Z,89.90
2022-09-15T05:19:00.231Z,89.80
2022-09-15T05:21:27.281Z,89.80
2022-09-15T05:23:54.034Z,90.00
2022-09-15T05:26:25.226Z,89.90
2022-09-15T05:28:52.417Z,89.90
2022-09-15T05:31:21.317Z,89.90
2022-09-15T05:33:51.845Z,89.90
2022-09-15T05:36:18.835Z,89.80
2022-09-15T05:38:45.650Z,89.70
2022-09-15T05:41:13.955Z,89.60
2022-09-15T05:43:40.624Z,89.60
2022-09-15T05:46:07.412Z,89.60
2022-09-15T05:48:34.313Z,89.50
2022-09-15T05:51:02.335Z,89.40
2022-09-15T05:53:29.137Z,89.40
2022-09-15T05:55:56.826Z,89.30
2022-09-15T05:58:23.774Z,89.30
2022-09-15T06:00:50.796Z,89.40
2022-09-15T06:03:17.597Z,89.50
2022-09-15T06:05:44.461Z,89.50
2022-09-15T06:08:11.220Z,89.50
2022-09-15T06:10:38.159Z,89.30
2022-09-15T06:13:05.012Z,89.20
2022-09-15T06:15:31.799Z,89.10
2022-09-15T06:17:58.516Z,89.00
2022-09-15T06:20:25.354Z,89.00
2022-09-15T06:22:53.082Z,89.20
2022-09-15T06:25:19.746Z,89.60
2022-09-15T06:27:49.114Z,89.90
2022-09-15T06:30:16.119Z,90.10
2022-09-15T06:32:48.278Z,90.10
2022-09-15T06:35:15.645Z,90.20
2022-09-15T06:37:52.569Z,90.10
2022-09-15T06:40:19.409Z,90.10
2022-09-15T06:42:46.069Z,90.00
2022-09-15T06:45:12.937Z,89.90
2022-09-15T06:47:42.721Z,89.80
2022-09-15T06:50:29.373Z,89.80
2022-09-15T06:52:56.060Z,89.70
2022-09-15T06:55:22.756Z,89.70
2022-09-15T06:57:51.390Z,89.70
2022-09-15T07:00:18.231Z,89.80
2022-09-15T07:02:45.053Z,89.80
2022-09-15T07:05:15.978Z,89.80
2022-09-15T07:07:44.381Z,89.80
2022-09-15T07:10:12.073Z,89.80
2022-09-15T07:12:46.681Z,89.80
2022-09-15T07:15:13.463Z,89.70
2022-09-15T07:17:40.116Z,89.70
2022-09-15T07:20:07.507Z,89.50
2022-09-15T07:22:34.223Z,89.40
2022-09-15T07:25:00.882Z,89.40
2022-09-15T07:27:27.549Z,89.20
2022-09-15T07:29:54.181Z,89.00
2022-09-15T07:32:20.870Z,89.00
2022-09-15T07:34:47.544Z,89.20
2022-09-15T07:37:14.278Z,89.30
2022-09-15T07:39:43.646Z,89.50
2022-09-15T07:42:10.367Z,89.50
2022-09-15T07:44:37.044Z,89.40
2022-09-15T07:47:03.765Z,89.30
2022-09-15T07:49:30.553Z,89.10
2022-09-15T07:51:57.288Z,88.80
2022-09-15T07:54:23.964Z,88.70
2022-09-15T07:56:50.677Z,88.50
2022-09-15T07:59:17.387Z,88.20
2022-09-15T08:01:44.111Z,87.90
2022-09-15T08:04:11.030Z,87.80
2022-09-15T08:06:37.657Z,87.50
2022-09-15T08:09:05.689Z,86.90
2022-09-15T08:11:32.326Z,86.40
2022-09-15T08:14:00.513Z,86.50
2022-09-15T08:16:27.200Z,86.10
2022-09-15T08:18:54.244Z,86.10
2022-09-15T08:21:21.156Z,86.00
2022-09-15T08:23:52.242Z,85.90
2022-09-15T08:26:18.996Z,85.70
2022-09-15T08:28:45.876Z,85.60
2022-09-15T08:31:13.271Z,85.60
2022-09-15T08:33:44.757Z,85.30
2022-09-15T08:36:27.052Z,84.90
2022-09-15T08:38:53.780Z,84.20
2022-09-15T08:41:32.497Z,83.90
2022-09-15T08:44:07.919Z,83.10
2022-09-15T08:46:52.152Z,82.50
2022-09-15T08:49:41.219Z,81.50
2022-09-15T08:52:19.310Z,81.20
2022-09-15T08:54:45.969Z,81.20
2022-09-15T08:57:14.529Z,81.10
2022-09-15T08:59:41.284Z,80.50
2022-09-15T09:02:32.934Z,79.90
2022-09-15T09:05:13.645Z,78.80
2022-09-15T09:08:02.846Z,78.80
2022-09-15T09:10:39.300Z,78.50
2022-09-15T09:13:24.292Z,78.30
2022-09-15T09:17:36.372Z,77.60
2022-09-15T09:20:05.180Z,77.80
2022-09-15T09:22:33.767Z,77.50
2022-09-15T09:25:05.925Z,76.80
2022-09-15T09:27:42.965Z,76.20
2022-09-15T09:30:15.262Z,76.10
2022-09-15T09:33:14.683Z,75.70
2022-09-15T09:35:51.959Z,76.00
2022-09-15T09:38:35.405Z,76.90
2022-09-15T09:41:02.907Z,78.10
2022-09-15T09:43:29.718Z,78.90
2022-09-15T09:45:56.544Z,79.60
2022-09-15T09:48:24.352Z,80.10
2022-09-15T09:50:51.077Z,80.60
2022-09-15T09:53:25.015Z,80.80
2022-09-15T09:55:54.553Z,80.50
2022-09-15T10:01:06.817Z,80.60
2022-09-15T10:04:22.403Z,80.50
2022-09-15T10:06:51.982Z,80.50
2022-09-15T10:09:18.831Z,80.60
2022-09-15T10:11:49.523Z,81.00
2022-09-15T10:14:22.862Z,80.70
2022-09-15T10:17:10.528Z,80.60
2022-09-15T10:19:47.092Z,80.50
2022-09-15T10:22:38.001Z,80.40
2022-09-15T10:25:21.200Z,80.80
2022-09-15T10:28:09.464Z,80.30
2022-09-15T10:30:36.550Z,79.10
2022-09-15T10:33:20.053Z,78.70
2022-09-15T10:35:46.754Z,77.80
2022-09-15T10:38:13.697Z,77.30
2022-09-15T10:40:55.669Z,77.10
2022-09-15T10:43:46.983Z,75.80
2022-09-15T10:46:26.064Z,76.00
2022-09-15T10:49:40.177Z,74.40
2022-09-15T10:52:49.181Z,73.20
2022-09-15T10:55:52.887Z,72.40
2022-09-15T10:58:46.670Z,70.40
2022-09-15T11:01:29.556Z,69.00
2022-09-15T11:04:02.239Z,67.30
2022-09-15T11:06:34.672Z,66.00
2022-09-15T11:09:28.346Z,62.80
2022-09-15T11:12:02.909Z,63.00
2022-09-15T11:14:46.299Z,61.00
2022-09-15T11:17:30.543Z,57.70
2022-09-15T11:20:19.037Z,56.30
2022-09-15T11:22:49.560Z,54.40
2022-09-15T11:25:23.641Z,55.60
2022-09-15T11:28:08.940Z,52.40
2022-09-15T11:30:47.751Z,47.10
2022-09-15T11:33:19.448Z,46.50
2022-09-15T11:36:02.057Z,43.60
2022-09-15T11:38:33.896Z,43.60
2022-09-15T11:41:09.426Z,43.40
2022-09-15T11:44:16.088Z,42.90
2022-09-15T11:47:04.981Z,41.40
2022-09-15T11:49:51.161Z,41.70
2022-09-15T11:52:36.604Z,42.30
2022-09-15T11:55:27.965Z,42.30
2022-09-15T11:57:59.924Z,43.20
2022-09-15T12:00:26.511Z,43.20
2022-09-15T12:03:17.215Z,43.80
2022-09-15T12:05:50.088Z,43.70
2022-09-15T12:08:34.123Z,43.70
2022-09-15T12:11:02.352Z,45.70
2022-09-15T12:13:31.465Z,46.30
2022-09-15T12:15:59.055Z,46.20
2022-09-15T12:18:47.124Z,46.60
2022-09-15T12:21:19.716Z,46.20
2022-09-15T12:23:59.924Z,47.10
2022-09-15T12:26:26.637Z,44.40
2022-09-15T12:28:53.309Z,45.70
2022-09-15T12:31:35.939Z,45.40
2022-09-15T12:34:21.200Z,45.50
2022-09-15T12:36:48.705Z,45.70
2022-09-15T12:39:27.474Z,47.00
2022-09-15T12:42:21.834Z,46.80
2022-09-15T12:44:56.155Z,45.00
2022-09-15T12:47:31.529Z,45.60
2022-09-15T12:50:21.537Z,45.90
2022-09-15T12:53:01.332Z,45.40
2022-09-15T12:55:34.448Z,45.10
2022-09-15T12:58:15.350Z,45.50
2022-09-15T13:01:00.673Z,44.80
2022-09-15T13:03:47.504Z,44.70
2022-09-15T13:06:26.892Z,44.20
2022-09-15T13:08:54.492Z,45.20
2022-09-15T13:11:33.372Z,44.40
2022-09-15T13:14:07.586Z,44.30
2022-09-15T13:17:00.426Z,44.10
2022-09-15T13:19:37.476Z,44.10
2022-09-15T13:22:31.940Z,43.70
2022-09-15T13:25:05.050Z,43.10
2022-09-15T13:27:56.863Z,43.70
2022-09-15T13:30:59.841Z,43.70
2022-09-15T13:40:39.701Z,41.20
2022-09-15T13:43:47.991Z,40.10
2022-09-15T13:46:43.144Z,40.90
2022-09-15T13:49:43.781Z,42.40
2022-09-15T13:52:19.800Z,43.20
2022-09-15T13:55:16.938Z,44.00
2022-09-15T14:00:35.207Z,45.40
2022-09-15T14:03:13.339Z,45.50
2022-09-15T14:05:40.051Z,46.70
2022-09-15T14:08:18.757Z,47.80
2022-09-15T14:10:58.731Z,49.10
2022-09-15T14:13:27.303Z,50.20
2022-09-15T14:16:03.177Z,51.00
2022-09-15T14:18:30.620Z,52.00
2022-09-15T14:21:05.252Z,52.50
2022-09-15T14:23:32.181Z,52.90
2022-09-15T14:26:01.645Z,53.40
2022-09-15T14:28:31.572Z,53.60
2022-09-15T14:31:01.935Z,53.70
2022-09-15T14:33:38.961Z,53.60
2022-09-15T14:36:21.268Z,53.90
2022-09-15T14:39:22.385Z,54.10
2022-09-15T14:41:50.461Z,53.80
2022-09-15T14:47:25.773Z,53.40
2022-09-15T14:50:06.397Z,52.40
2022-09-15T14:52:35.765Z,52.40
2022-09-15T14:55:03.322Z,52.60
2022-09-15T14:57:31.670Z,52.40
2022-09-15T15:00:01.666Z,52.10
2022-09-15T15:02:46.962Z,51.80
2022-09-15T15:05:30.841Z,52.40
2022-09-15T15:07:57.675Z,53.20
2022-09-15T15:10:33.402Z,52.10
2022-09-15T15:13:09.776Z,50.70
2022-09-15T15:15:37.924Z,49.50
2022-09-15T15:18:37.898Z,48.30
2022-09-15T15:21:23.936Z,47.80
2022-09-15T15:23:50.931Z,47.90
2022-09-15T15:26:33.301Z,47.50
2022-09-15T15:29:00.353Z,46.80
2022-09-15T15:31:27.903Z,46.80
2022-09-15T15:33:56.528Z,46.80
2022-09-15T15:36:38.711Z,47.00
2022-09-15T15:39:06.499Z,46.90
2022-09-15T15:41:44.037Z,46.80
2022-09-15T15:44:19.739Z,46.90
2022-09-15T15:46:55.707Z,47.60
2022-09-15T15:49:26.943Z,47.20
2022-09-15T15:51:54.263Z,47.50
2022-09-15T15:54:26.525Z,47.80
2022-09-15T15:56:53.912Z,47.70
2022-09-15T15:59:20.909Z,48.00
2022-09-15T16:01:51.097Z,48.50
2022-09-15T16:04:18.100Z,49.00
2022-09-15T19:49:14.834Z,63.50
2022-09-15T19:51:44.208Z,63.50
2022-09-15T19:54:10.962Z,63.30
2022-09-15T19:56:47.092Z,63.00
2022-09-15T19:59:13.967Z,62.50
2022-09-15T20:01:40.716Z,62.50
2022-09-15T20:04:07.615Z,62.30
2022-09-15T20:06:34.511Z,62.20
2022-09-15T20:09:01.350Z,62.10
2022-09-15T20:11:28.243Z,61.90
2022-09-15T20:13:55.146Z,61.90
2022-09-15T20:16:22.323Z,62.00
2022-09-15T20:18:50.399Z,62.10
2022-09-15T20:21:45.823Z,62.10
2022-09-15T20:24:09.379Z,62.10
2022-09-15T20:26:36.177Z,62.10
2022-09-15T20:29:03.539Z,62.20
2022-09-15T20:31:30.265Z,62.20
2022-09-15T20:33:56.888Z,62.30
2022-09-15T20:36:25.285Z,62.50
2022-09-15T20:38:52.859Z,62.60
2022-09-15T20:41:20.758Z,62.70
2022-09-15T20:43:47.497Z,62.80
2022-09-15T20:46:15.788Z,62.70
2022-09-15T20:48:42.621Z,63.10
2022-09-15T20:51:17.938Z,63.40
2022-09-15T20:53:48.441Z,63.80
2022-09-15T20:56:15.394Z,64.00
2022-09-15T20:58:43.356Z,64.10
2022-09-15T21:01:17.886Z,64.40
2022-09-15T21:03:45.024Z,64.50
2022-09-15T21:06:16.505Z,64.70
2022-09-15T21:08:43.232Z,65.00
2022-09-15T21:11:10.108Z,65.00
2022-09-15T21:13:37.439Z,64.90
2022-09-15T21:16:05.707Z,64.70
2022-09-15T21:18:33.060Z,64.70
2022-09-15T21:21:01.442Z,64.80
2022-09-15T21:23:35.285Z,64.90
2022-09-15T21:26:04.422Z,65.00
2022-09-15T21:28:31.193Z,65.00
2022-09-15T21:31:05.210Z,65.20
2022-09-15T21:33:32.009Z,65.20
2022-09-15T21:36:09.755Z,65.10
2022-09-15T21:38:39.088Z,65.20
2022-09-15T21:41:06.410Z,65.00
2022-09-15T21:43:35.309Z,64.90
2022-09-15T21:46:02.329Z,64.50
2022-09-15T21:48:29.708Z,64.40
2022-09-15T21:50:56.576Z,64.10
2022-09-15T21:53:23.217Z,63.40
2022-09-15T21:55:50.089Z,63.20
2022-09-15T21:58:20.304Z,63.00
2022-09-15T22:00:47.664Z,62.80
2022-09-15T22:03:14.430Z,62.60
2022-09-15T22:05:45.619Z,62.40
2022-09-15T22:08:14.567Z,62.10
2022-09-15T22:10:41.675Z,62.10
2022-09-15T22:13:09.120Z,62.20
2022-09-15T22:15:38.305Z,62.40
2022-09-15T22:18:05.247Z,62.30
2022-09-15T22:20:31.953Z,62.20
2022-09-15T22:23:24.506Z,62.20
2022-09-15T22:25:51.261Z,62.10
2022-09-15T22:28:17.911Z,62.30
2022-09-15T22:33:26.269Z,62.50
2022-09-15T22:36:27.968Z,64.30
2022-09-15T22:39:16.424Z,65.40
2022-09-15T22:41:45.582Z,66.30
2022-09-15T22:44:32.031Z,66.90
2022-09-15T22:52:17.747Z,68.70
2022-09-15T22:54:44.436Z,68.80
2022-09-15T22:57:14.172Z,69.50
2022-09-15T22:59:43.984Z,70.00
2022-09-15T23:02:10.795Z,70.20
2022-09-15T23:04:37.452Z,70.40
2022-09-15T23:07:04.141Z,70.50
2022-09-15T23:09:30.841Z,70.60
2022-09-15T23:11:57.607Z,70.90
2022-09-15T23:14:24.402Z,71.10
2022-09-15T23:16:51.071Z,71.50
2022-09-15T23:22:46.498Z,72.00
2022-09-15T23:25:13.191Z,71.90
2022-09-15T23:27:39.828Z,72.20
2022-09-15T23:30:06.996Z,72.20
2022-09-15T23:39:02.141Z,71.90
